Barcelona, Spain
Current Conditions -  °F | °C
As of 3:30 AM on Monday 22 Dec 2014 (Local Time) from LEBL Reporting Station
Clear Clear  
Wind Chill: 36°   Ceiling: Unl
Heat Index: 43°   Visibility: 6mi
Dew Point: 37°   Wind: 14mph
Humidity: 81%   Direction: 330°NNW
Pressure: 30.48"   Gusts: NA
Location:  41.39°N, 2.17°E
Report Text: LEBL 220230Z 33012KT CAVOK 06/03 Q1032 NOSIG
Loading
Personal Weather Stations






























Interactive Weather Map New forecast layout! Learn more

10-Day Weather Forecast

Advertisements
Track Severe Weather on mobile